createdAt,value
2023-01-23T00:29:07.518Z,2.00
2023-01-23T00:34:29.357Z,2.38
2023-01-23T00:39:51.119Z,2.50
2023-01-23T00:45:12.958Z,2.08
2023-01-23T00:50:34.640Z,2.35
2023-01-23T00:55:56.330Z,2.10
2023-01-23T01:01:18.223Z,2.60
2023-01-23T01:06:39.924Z,2.20
2023-01-23T01:12:01.631Z,2.53
2023-01-23T01:17:23.600Z,2.55
2023-01-23T01:22:45.294Z,2.75
2023-01-23T01:28:08.126Z,2.67
2023-01-23T01:33:29.881Z,2.70
2023-01-23T01:38:51.738Z,2.78
2023-01-23T01:44:19.635Z,2.28
2023-01-23T01:49:41.426Z,2.20
2023-01-23T01:55:05.307Z,2.08
2023-01-23T02:00:27.011Z,1.85
2023-01-23T02:05:50.138Z,2.25
2023-01-23T02:11:12.122Z,1.92
2023-01-23T02:16:41.337Z,2.00
2023-01-23T02:22:24.279Z,1.85
2023-01-23T02:27:45.987Z,1.80
2023-01-23T02:33:27.850Z,1.85
2023-01-23T02:39:13.488Z,1.40
2023-01-23T02:44:35.342Z,1.88
2023-01-23T02:49:57.074Z,2.15
2023-01-23T02:55:18.877Z,2.75
2023-01-23T03:00:43.563Z,1.60
2023-01-23T03:06:06.165Z,2.03
2023-01-23T03:11:27.916Z,1.60
2023-01-23T03:16:54.133Z,1.52
2023-01-23T03:22:16.014Z,2.00
2023-01-23T03:27:37.734Z,2.08
2023-01-23T03:32:59.415Z,2.28
2023-01-23T03:38:21.156Z,2.35
2023-01-23T03:43:42.901Z,2.60
2023-01-23T03:49:04.629Z,2.75
2023-01-23T03:54:27.141Z,2.65
2023-01-23T03:59:49.045Z,2.05
2023-01-23T04:05:10.800Z,2.30
2023-01-23T04:10:32.978Z,1.75
2023-01-23T04:15:54.826Z,1.75
2023-01-23T04:21:16.641Z,1.92
2023-01-23T04:26:38.410Z,1.60
2023-01-23T04:32:00.187Z,1.80
2023-01-23T04:37:21.911Z,1.70
2023-01-23T04:42:43.581Z,2.08
2023-01-23T04:48:05.534Z,1.95
2023-01-23T04:53:27.218Z,1.48
2023-01-23T04:58:50.021Z,1.55
2023-01-23T05:04:11.891Z,2.30
2023-01-23T05:09:33.611Z,2.58
2023-01-23T05:14:55.312Z,2.65
2023-01-23T05:20:17.497Z,1.95
2023-01-23T05:25:39.466Z,2.42
2023-01-23T05:31:01.297Z,2.13
2023-01-23T05:36:23.135Z,2.53
2023-01-23T05:41:44.979Z,2.10
2023-01-23T05:47:06.638Z,2.08
2023-01-23T05:52:28.462Z,2.30
2023-01-23T05:57:50.223Z,2.00
2023-01-23T06:03:11.907Z,2.00
2023-01-23T06:08:33.669Z,2.45
2023-01-23T06:13:55.664Z,2.03
2023-01-23T06:19:17.373Z,2.40
2023-01-23T06:24:39.273Z,1.88
2023-01-23T06:30:01.015Z,2.42
2023-01-23T06:35:23.112Z,2.38
2023-01-23T06:40:45.217Z,2.63
2023-01-23T06:46:11.025Z,2.33
2023-01-23T06:51:33.428Z,2.53
2023-01-23T06:56:55.140Z,2.22
2023-01-23T07:02:16.942Z,2.30
2023-01-23T07:07:38.697Z,2.15
2023-01-23T07:13:00.396Z,2.13
2023-01-23T07:18:23.249Z,1.90
2023-01-23T07:23:44.936Z,2.22
2023-01-23T07:29:09.020Z,2.22
2023-01-23T07:34:30.755Z,2.10
2023-01-23T07:39:52.623Z,2.25
2023-01-23T07:45:14.756Z,2.35
2023-01-23T07:50:38.208Z,2.20
2023-01-23T07:56:00.221Z,2.40
2023-01-23T08:01:22.047Z,3.03
2023-01-23T08:06:43.897Z,2.20
2023-01-23T08:12:05.875Z,2.20
2023-01-23T08:17:27.608Z,2.20
2023-01-23T08:22:49.332Z,2.20
2023-01-23T08:28:11.064Z,2.28
2023-01-23T08:33:34.449Z,2.10
2023-01-23T08:38:56.317Z,2.22
2023-01-23T08:44:18.073Z,2.25
2023-01-23T08:49:39.786Z,1.92
2023-01-23T08:55:01.543Z,1.65
2023-01-23T09:00:23.432Z,1.50
2023-01-23T09:05:45.107Z,1.50
2023-01-23T09:11:08.670Z,1.33
2023-01-23T09:16:30.411Z,1.52
2023-01-23T09:21:57.091Z,1.40
2023-01-23T09:27:19.525Z,1.60
2023-01-23T09:32:41.261Z,1.70
2023-01-23T09:38:07.233Z,1.95
2023-01-23T09:43:42.605Z,1.80
2023-01-23T09:49:27.166Z,1.50
2023-01-23T09:54:53.387Z,1.73
2023-01-23T10:00:24.306Z,1.60
2023-01-23T10:06:07.407Z,1.42
2023-01-23T10:11:37.853Z,1.88
2023-01-23T10:17:24.265Z,1.83
2023-01-23T10:23:05.938Z,2.45
2023-01-23T10:28:39.526Z,2.13
2023-01-23T10:34:10.863Z,1.70
2023-01-23T10:39:56.064Z,2.17
2023-01-23T10:45:21.394Z,2.08
2023-01-23T10:50:43.367Z,2.05
2023-01-23T10:56:05.354Z,2.05
2023-01-23T11:01:31.657Z,1.92
2023-01-23T11:07:05.135Z,2.00
2023-01-23T11:12:29.438Z,1.80
2023-01-23T11:17:53.491Z,2.28
2023-01-23T11:23:18.140Z,2.60
2023-01-23T11:28:51.180Z,2.38
2023-01-23T11:34:14.970Z,2.50
2023-01-23T11:39:49.994Z,1.88
2023-01-23T11:45:31.197Z,1.90
2023-01-23T11:51:13.113Z,1.90
2023-01-23T11:56:53.404Z,1.80
2023-01-23T12:02:46.630Z,1.90
2023-01-23T12:08:57.295Z,1.98
2023-01-23T12:14:34.195Z,2.17
2023-01-23T12:20:24.957Z,2.42
2023-01-23T12:26:07.112Z,2.40
2023-01-23T12:31:51.723Z,2.08
2023-01-23T12:37:35.561Z,1.95
2023-01-23T12:43:04.227Z,2.50
2023-01-23T12:48:58.725Z,2.55
2023-01-23T12:54:31.631Z,3.83
2023-01-23T13:00:01.872Z,3.22
2023-01-23T13:05:40.237Z,3.55
2023-01-23T13:11:26.738Z,4.28
2023-01-23T13:16:50.502Z,3.60
2023-01-23T13:22:29.317Z,3.60
2023-01-23T13:28:01.022Z,3.28
2023-01-23T13:33:28.965Z,3.95
2023-01-23T13:39:00.608Z,3.28
2023-01-23T13:44:35.802Z,4.28
2023-01-23T14:24:47.737Z,2.42
2023-01-23T14:30:18.632Z,2.75
2023-01-23T14:35:42.834Z,2.85
2023-01-23T14:41:07.424Z,2.78
2023-01-23T14:46:40.396Z,2.70
2023-01-23T14:52:04.777Z,2.47
2023-01-23T14:57:27.838Z,2.55
2023-01-23T15:02:54.596Z,2.80
2023-01-23T15:08:33.211Z,2.30
2023-01-23T15:14:01.690Z,2.50
2023-01-23T15:19:25.283Z,2.20
2023-01-23T15:24:47.761Z,2.20
2023-01-23T15:30:28.943Z,2.20
2023-01-23T15:35:50.931Z,2.63
2023-01-23T15:41:12.654Z,2.13
2023-01-23T15:46:34.399Z,2.33
2023-01-23T15:51:58.878Z,2.03
2023-01-23T15:57:20.969Z,2.15
2023-01-23T16:02:55.181Z,2.22
2023-01-23T16:08:23.262Z,2.47
2023-01-23T16:13:45.202Z,3.90
2023-01-23T16:19:06.912Z,3.83
2023-01-23T16:24:30.172Z,3.75
2023-01-23T16:29:51.898Z,3.50
2023-01-23T16:35:15.047Z,3.45
2023-01-23T16:40:36.785Z,2.90
2023-01-23T16:45:58.668Z,3.50
2023-01-23T16:51:24.975Z,3.80
2023-01-23T16:56:51.025Z,2.95
2023-01-23T17:02:31.232Z,3.42
2023-01-23T17:07:53.191Z,3.53
2023-01-23T17:13:17.023Z,3.30
2023-01-23T17:18:39.116Z,3.40
2023-01-23T17:24:01.071Z,2.67
2023-01-23T17:29:23.184Z,3.00
2023-01-23T17:34:50.330Z,2.58
2023-01-23T17:40:14.711Z,2.38
2023-01-23T17:45:36.538Z,2.17
2023-01-23T17:50:59.336Z,2.00
2023-01-23T17:56:21.189Z,2.10
2023-01-23T18:01:43.194Z,1.90
2023-01-23T18:07:04.986Z,1.98
2023-01-23T18:12:46.896Z,2.08
2023-01-23T18:18:34.337Z,2.30
2023-01-23T18:23:56.535Z,1.90
2023-01-23T18:29:33.703Z,1.80
2023-01-23T18:35:14.125Z,2.10
2023-01-23T18:41:09.387Z,1.90
2023-01-23T18:46:31.354Z,1.90
2023-01-23T18:52:19.624Z,1.85
2023-01-23T18:58:03.660Z,1.92
2023-01-23T19:03:38.944Z,1.70
2023-01-23T19:09:00.879Z,1.63
2023-01-23T19:14:51.422Z,1.77
2023-01-23T19:20:36.335Z,1.70
2023-01-23T19:25:58.331Z,2.22
2023-01-23T19:31:23.894Z,1.88
2023-01-23T19:36:45.909Z,1.90
2023-01-23T19:42:14.192Z,1.98
2023-01-23T19:47:35.911Z,1.85
2023-01-23T19:52:58.814Z,1.80
2023-01-23T19:58:20.478Z,2.15
2023-01-23T20:03:42.187Z,1.92
2023-01-23T20:09:03.854Z,2.30
2023-01-23T20:14:25.942Z,2.60
2023-01-23T20:19:48.246Z,1.90
2023-01-23T20:25:15.541Z,1.98
2023-01-23T20:30:37.508Z,1.52
2023-01-23T20:35:59.922Z,1.83
2023-01-23T20:41:22.157Z,2.00
2023-01-23T20:46:44.033Z,1.90
2023-01-23T20:52:24.531Z,1.50
2023-01-23T20:58:05.066Z,1.50
2023-01-23T21:03:26.745Z,1.55
2023-01-23T21:08:48.469Z,2.17
2023-01-23T21:14:10.211Z,1.83
2023-01-23T21:19:33.074Z,2.10
2023-01-23T21:24:54.817Z,2.10
2023-01-23T21:30:17.102Z,2.08
2023-01-23T21:35:39.089Z,2.22
2023-01-23T21:41:00.921Z,2.10
2023-01-23T21:46:23.062Z,1.90
2023-01-23T21:51:45.298Z,2.00
2023-01-23T21:57:07.067Z,2.33
2023-01-23T22:02:28.787Z,2.15
2023-01-23T22:07:50.766Z,2.33
2023-01-23T22:13:12.465Z,2.08
2023-01-23T22:18:34.232Z,1.90
2023-01-23T22:23:56.074Z,2.05
2023-01-23T22:29:18.105Z,1.80
2023-01-23T22:34:39.782Z,1.73
2023-01-23T22:40:01.477Z,1.70
2023-01-23T22:45:23.879Z,2.25
2023-01-23T22:50:46.095Z,2.00
2023-01-23T22:56:08.504Z,2.00
2023-01-23T23:01:30.403Z,2.10
2023-01-23T23:06:52.159Z,2.05
2023-01-23T23:12:13.888Z,1.98
2023-01-23T23:17:35.640Z,1.70
2023-01-23T23:22:57.783Z,2.20
2023-01-23T23:28:19.603Z,1.90
2023-01-23T23:33:41.338Z,1.95
2023-01-23T23:39:03.071Z,1.73
2023-01-23T23:44:24.806Z,2.00
2023-01-23T23:49:46.534Z,2.05
2023-01-23T23:55:08.679Z,1.98
